COWK1: Cowskin Creek at 119th N. Wichita, KS

Data processed at Thu May 23 2019 23:50


All information presented herein is the property of the government of the United States of America and may be revised or deleted at any time without prior notice.
Dissemination of this information without the expressed written consent of the Public Affairs Office, Tulsa District U.S. Army Corps of Engineers is strictly prohibited.
These data are gathered electronically and, as presented, have not undergone any form of quality control. These data are not guaranteed to be valid or correct.
Go to home page.
Go to station list.
Go to home page.

Upstream stations:

Downstream station:
Previous Day
Next Day
Current Day
    
SHEF ID:       COWK1     COWSKIN C AT 119TH ST AT WICHITA
STATION TYPE:  
Regulating: Stage =    18.00, Flow =     1458

               PRECIP     STAGE  RIV-FLOW  BAT-LOAD
                   in        ft       cfs      volt
              Ccp-Rev   Ccp-Rev   Ccp-Rev   Ccp-Rev
(US/Central)
05/23 00:00      0.00     17.03      1173     12.17
05/23 01:00      0.00     16.88      1138     11.93
05/23 02:00      0.00     16.74      1107     11.86
05/23 03:00      0.00     16.61      1078     11.77
05/23 04:00      0.00     16.40      1032     11.70
05/23 05:00      0.00     16.14       978     11.61
05/23 06:00      0.00     15.93       935     12.49
05/23 07:00      0.00     15.68       885     12.49
05/23 08:00      0.00     15.42       834     12.49
05/23 09:00      0.00     15.11       777     12.49
05/23 10:00      0.00     14.78       718     12.57
05/23 11:00      0.00     14.43       659     12.65
05/23 12:00      0.00     14.03       594     12.73
05/23 13:00      0.00     13.64       535     12.73
05/23 14:00      0.00     13.22       475     12.89
05/23 15:00      0.00     12.81       419     12.89
05/23 16:00      0.00     12.39       366     13.05
05/23 17:00      0.01     12.05       327     12.73
05/23 18:00      0.00     11.79       298     12.65
05/23 19:00      0.00     11.53       271     12.65
05/23 20:00      0.00     11.31       249     12.57
05/23 21:00      0.00     11.10       229     12.57
05/23 22:00      0.00     10.93       214     12.57
05/23 23:00      0.00     10.71       195     12.49